Terminal Aerodrome Forecast
Issued by NWS

Home | Current Version | Previous Version | Graphics & Text | Print | Product List | Glossary On
Versions: 1 2 3 4 5 6 7 8 9 10 11 12 13 14 15 16 17 18 19 20 21 22 23 24 25 26
000
FTUS43 KABR 250820 AAA
TAFPIR
TAF AMD
KPIR 250820Z 2508/2606 04005KT 3SM BR OVC003
      TEMPO 2508/2510 -RA BKN006 OVC011
     FM251000 34006KT 2SM -DZ BR OVC003
     FM251500 34006KT P6SM OVC015
     FM252100 33007KT P6SM OVC035=

USA.gov is the U.S. government's official web portal to all federal, state and local government web resources and services.